createdAt,value
2018-05-06T00:02:17.517Z,23.10
2018-05-06T00:04:45.151Z,23.10
2018-05-06T00:07:12.611Z,23.10
2018-05-06T00:09:40.979Z,23.10
2018-05-06T00:12:08.442Z,23.10
2018-05-06T00:14:35.934Z,23.10
2018-05-06T00:17:03.408Z,23.10
2018-05-06T00:19:30.871Z,23.10
2018-05-06T00:21:58.328Z,23.10
2018-05-06T00:24:25.868Z,23.10
2018-05-06T00:26:53.327Z,23.10
2018-05-06T00:29:21.707Z,23.10
2018-05-06T00:31:49.471Z,23.10
2018-05-06T00:34:17.233Z,23.10
2018-05-06T00:36:44.979Z,23.10
2018-05-06T00:39:12.445Z,23.10
2018-05-06T00:41:40.527Z,23.10
2018-05-06T00:44:07.985Z,23.10
2018-05-06T00:46:35.443Z,23.10
2018-05-06T00:49:02.895Z,23.10
2018-05-06T00:51:30.352Z,23.10
2018-05-06T00:53:57.815Z,23.10
2018-05-06T00:56:25.271Z,23.10
2018-05-06T00:58:52.731Z,23.10
2018-05-06T01:01:20.175Z,23.10
2018-05-06T01:03:47.643Z,23.10
2018-05-06T01:06:15.100Z,23.10
2018-05-06T01:08:42.556Z,23.10
2018-05-06T01:11:10.363Z,23.10
2018-05-06T01:13:37.827Z,23.10
2018-05-06T01:16:05.723Z,23.10
2018-05-06T01:18:33.328Z,23.00
2018-05-06T01:21:01.088Z,23.10
2018-05-06T01:23:28.854Z,23.10
2018-05-06T01:25:56.351Z,23.10
2018-05-06T01:28:23.987Z,23.10
2018-05-06T01:30:51.531Z,23.10
2018-05-06T01:33:19.193Z,23.00
2018-05-06T01:35:46.691Z,23.00
2018-05-06T01:38:14.143Z,23.10
2018-05-06T01:40:41.600Z,23.10
2018-05-06T01:43:09.089Z,23.00
2018-05-06T01:45:36.546Z,23.00
2018-05-06T01:48:04.042Z,23.10
2018-05-06T01:50:31.679Z,23.00
2018-05-06T01:52:59.142Z,23.00
2018-05-06T01:55:26.600Z,23.00
2018-05-06T01:57:54.077Z,23.00
2018-05-06T02:00:21.652Z,23.00
2018-05-06T02:02:49.460Z,23.00
2018-05-06T02:05:17.042Z,23.00
2018-05-06T02:07:44.625Z,23.00
2018-05-06T02:10:12.175Z,23.00
2018-05-06T02:12:39.632Z,23.00
2018-05-06T02:15:07.091Z,23.00
2018-05-06T02:17:34.780Z,23.00
2018-05-06T02:20:02.536Z,23.00
2018-05-06T02:22:30.179Z,23.10
2018-05-06T02:24:57.648Z,23.00
2018-05-06T02:27:25.215Z,23.10
2018-05-06T02:29:52.876Z,23.00
2018-05-06T02:32:20.323Z,23.10
2018-05-06T02:34:47.785Z,23.00
2018-05-06T02:37:15.243Z,23.10
2018-05-06T02:39:42.820Z,23.00
2018-05-06T02:42:10.600Z,23.00
2018-05-06T02:44:38.245Z,23.00
2018-05-06T02:47:05.700Z,23.10
2018-05-06T02:49:33.274Z,23.00
2018-05-06T02:52:00.700Z,23.00
2018-05-06T02:54:28.165Z,23.00
2018-05-06T02:56:55.631Z,23.00
2018-05-06T02:59:23.268Z,23.00
2018-05-06T03:01:50.779Z,23.00
2018-05-06T03:04:18.241Z,23.00
2018-05-06T03:06:45.795Z,23.00
2018-05-06T03:09:13.536Z,23.00
2018-05-06T03:11:41.179Z,23.10
2018-05-06T03:14:08.632Z,23.00
2018-05-06T03:16:36.091Z,23.00
2018-05-06T03:19:03.571Z,23.00
2018-05-06T03:21:31.023Z,23.00
2018-05-06T03:23:58.496Z,23.00
2018-05-06T03:26:26.044Z,23.00
2018-05-06T03:28:53.684Z,23.00
2018-05-06T03:31:21.251Z,23.00
2018-05-06T03:33:48.727Z,23.00
2018-05-06T03:36:16.175Z,23.00
2018-05-06T03:38:43.715Z,23.00
2018-05-06T03:41:20.930Z,23.00
2018-05-06T03:43:48.567Z,23.00
2018-05-06T03:46:16.023Z,23.00
2018-05-06T03:48:43.486Z,23.00
2018-05-06T03:51:10.936Z,23.00
2018-05-06T03:53:38.391Z,23.00
2018-05-06T03:59:28.667Z,23.00
2018-05-06T04:05:03.401Z,23.00
2018-05-06T04:07:30.911Z,23.00
2018-05-06T04:09:58.368Z,23.00
2018-05-06T04:12:25.868Z,23.00
2018-05-06T04:14:53.425Z,23.00
2018-05-06T04:17:20.881Z,23.00
2018-05-06T04:19:48.659Z,23.00
2018-05-06T04:22:16.428Z,23.00
2018-05-06T04:24:44.196Z,23.00
2018-05-06T04:27:11.803Z,23.00
2018-05-06T04:29:39.339Z,23.00
2018-05-06T04:32:06.784Z,23.00
2018-05-06T04:34:34.251Z,23.00
2018-05-06T04:37:01.720Z,23.00
2018-05-06T04:39:29.174Z,23.00
2018-05-06T04:41:56.703Z,23.00
2018-05-06T04:44:24.459Z,23.00
2018-05-06T04:46:51.950Z,23.00
2018-05-06T04:49:19.620Z,23.00
2018-05-06T04:51:47.139Z,23.00
2018-05-06T04:54:14.606Z,23.00
2018-05-06T04:56:42.356Z,23.00
2018-05-06T04:59:10.021Z,23.00
2018-05-06T05:01:37.487Z,23.00
2018-05-06T05:04:04.971Z,23.00
2018-05-06T05:06:32.420Z,23.00
2018-05-06T05:08:59.874Z,23.00
2018-05-06T05:11:27.436Z,23.00
2018-05-06T05:13:54.879Z,23.00
2018-05-06T05:16:22.452Z,23.00
2018-05-06T05:18:49.908Z,23.10
2018-05-06T05:21:17.463Z,23.10
2018-05-06T05:23:45.003Z,23.20
2018-05-06T05:26:12.542Z,23.10
2018-05-06T05:28:40.000Z,23.10
2018-05-06T05:31:07.460Z,23.10
2018-05-06T05:33:35.150Z,23.10
2018-05-06T05:36:02.947Z,23.10
2018-05-06T05:38:30.547Z,23.20
2018-05-06T05:40:58.131Z,23.20
2018-05-06T05:43:25.894Z,23.20
2018-05-06T05:45:53.354Z,23.20
2018-05-06T05:48:20.815Z,23.20
2018-05-06T05:50:48.472Z,23.20
2018-05-06T05:53:15.974Z,23.20
2018-05-06T05:55:43.431Z,23.20
2018-05-06T05:58:10.875Z,23.30
2018-05-06T06:00:42.745Z,23.20
2018-05-06T06:03:10.383Z,23.30
2018-05-06T06:05:37.944Z,23.30
2018-05-06T06:08:05.575Z,23.30
2018-05-06T06:10:33.035Z,23.40
2018-05-06T06:13:00.615Z,23.40
2018-05-06T06:15:28.275Z,23.40
2018-05-06T06:17:55.838Z,23.40
2018-05-06T06:20:23.316Z,23.40
2018-05-06T06:22:50.756Z,23.40
2018-05-06T06:25:18.399Z,23.40
2018-05-06T06:27:45.903Z,23.50
2018-05-06T06:30:13.364Z,23.50
2018-05-06T06:32:40.826Z,23.50
2018-05-06T06:35:08.435Z,23.50
2018-05-06T06:37:35.819Z,23.50
2018-05-06T06:40:03.582Z,23.50
2018-05-06T06:42:31.224Z,23.50
2018-05-06T06:44:58.720Z,23.50
2018-05-06T06:47:26.259Z,23.50
2018-05-06T06:49:53.710Z,23.50
2018-05-06T06:52:21.277Z,23.50
2018-05-06T06:54:48.848Z,23.50
2018-05-06T06:57:16.307Z,23.50
2018-05-06T06:59:43.764Z,23.50
2018-05-06T07:02:11.228Z,23.40
2018-05-06T07:04:38.687Z,23.50
2018-05-06T07:07:06.140Z,23.50
2018-05-06T07:09:33.595Z,23.50
2018-05-06T07:12:01.083Z,23.40
2018-05-06T07:14:28.612Z,23.50
2018-05-06T07:16:56.253Z,23.40
2018-05-06T07:19:23.861Z,23.40
2018-05-06T07:21:51.219Z,23.40
2018-05-06T07:24:18.677Z,23.40
2018-05-06T07:26:46.220Z,23.40
2018-05-06T07:29:13.673Z,23.40
2018-05-06T07:31:41.435Z,23.40
2018-05-06T07:34:09.064Z,23.40
2018-05-06T07:36:36.651Z,23.40
2018-05-06T07:39:04.095Z,23.40
2018-05-06T07:41:31.760Z,23.40
2018-05-06T07:43:59.194Z,23.40
2018-05-06T07:46:26.740Z,23.40
2018-05-06T07:48:54.237Z,23.40
2018-05-06T07:51:21.665Z,23.40
2018-05-06T07:53:49.122Z,23.40
2018-05-06T07:56:16.583Z,23.40
2018-05-06T07:58:44.085Z,23.40
2018-05-06T08:01:11.880Z,23.40
2018-05-06T08:03:39.607Z,23.40
2018-05-06T08:06:07.059Z,23.40
2018-05-06T08:08:34.638Z,23.40
2018-05-06T08:11:02.283Z,23.40
2018-05-06T08:13:29.782Z,23.30
2018-05-06T08:15:57.196Z,23.30
2018-05-06T08:18:24.654Z,23.40
2018-05-06T08:20:52.121Z,23.40
2018-05-06T08:23:19.683Z,23.40
2018-05-06T08:25:47.336Z,23.40
2018-05-06T08:28:14.785Z,23.40
2018-05-06T08:30:42.239Z,23.30
2018-05-06T08:33:09.720Z,23.30
2018-05-06T08:35:37.180Z,23.30
2018-05-06T08:38:04.819Z,23.30
2018-05-06T08:40:32.357Z,23.30
2018-05-06T08:42:59.807Z,23.30
2018-05-06T08:45:27.263Z,23.30
2018-05-06T08:47:54.719Z,23.30
2018-05-06T08:50:22.176Z,23.30
2018-05-06T08:52:49.620Z,23.30
2018-05-06T08:55:17.135Z,23.30
2018-05-06T08:57:44.552Z,23.30
2018-05-06T09:00:12.064Z,23.30
2018-05-06T09:02:39.530Z,23.30
2018-05-06T09:05:07.148Z,23.30
2018-05-06T09:07:34.752Z,23.30
2018-05-06T09:10:02.214Z,23.30
2018-05-06T09:12:29.660Z,23.30
2018-05-06T09:14:57.112Z,23.30
2018-05-06T09:17:24.579Z,23.30
2018-05-06T09:19:52.104Z,23.30
2018-05-06T09:22:19.489Z,23.30
2018-05-06T09:24:47.135Z,23.30
2018-05-06T09:27:14.592Z,23.30
2018-05-06T09:29:42.171Z,23.30
2018-05-06T09:32:09.941Z,23.30
2018-05-06T09:34:37.491Z,23.30
2018-05-06T09:37:04.949Z,23.30
2018-05-06T09:39:32.388Z,23.30
2018-05-06T09:42:00.075Z,23.30
2018-05-06T09:44:27.523Z,23.30
2018-05-06T09:46:54.988Z,23.30
2018-05-06T09:49:22.619Z,23.30
2018-05-06T09:51:50.119Z,23.30
2018-05-06T09:54:18.467Z,23.30
2018-05-06T09:56:45.982Z,23.20
2018-05-06T09:59:13.444Z,23.30
2018-05-06T10:01:40.895Z,23.30
2018-05-06T10:04:08.339Z,23.30
2018-05-06T10:06:35.787Z,23.30
2018-05-06T10:09:03.235Z,23.30
2018-05-06T10:11:30.699Z,23.30
2018-05-06T10:13:58.148Z,23.30
2018-05-06T10:16:25.623Z,23.30
2018-05-06T10:18:53.860Z,23.30
2018-05-06T10:21:21.419Z,23.30
2018-05-06T10:23:48.915Z,23.30
2018-05-06T10:26:16.376Z,23.30
2018-05-06T10:28:43.823Z,23.30
2018-05-06T10:31:11.267Z,23.40
2018-05-06T10:33:38.872Z,23.40
2018-05-06T10:36:06.473Z,23.40
2018-05-06T10:38:34.013Z,23.50
2018-05-06T10:41:01.400Z,23.50
2018-05-06T10:43:28.979Z,23.50
2018-05-06T10:45:56.427Z,23.50
2018-05-06T10:48:23.895Z,23.50
2018-05-06T10:50:51.537Z,23.40
2018-05-06T10:53:19.125Z,23.40
2018-05-06T10:55:46.572Z,23.40
2018-05-06T10:58:14.214Z,23.40
2018-05-06T11:00:41.668Z,23.40
2018-05-06T11:03:09.283Z,23.40
2018-05-06T11:05:36.886Z,23.40
2018-05-06T11:08:04.392Z,23.40
2018-05-06T11:10:31.950Z,23.40
2018-05-06T11:12:59.582Z,23.40
2018-05-06T11:15:27.159Z,23.40
2018-05-06T11:17:54.705Z,23.40
2018-05-06T11:20:22.400Z,23.40
2018-05-06T11:22:50.025Z,23.50
2018-05-06T11:25:18.227Z,23.50
2018-05-06T11:27:45.992Z,23.50
2018-05-06T11:30:13.615Z,23.50
2018-05-06T11:32:41.062Z,23.50
2018-05-06T11:35:08.571Z,23.50
2018-05-06T11:37:36.033Z,23.50
2018-05-06T11:40:03.503Z,23.50
2018-05-06T11:42:31.052Z,23.50
2018-05-06T11:44:58.504Z,23.50
2018-05-06T11:47:25.966Z,23.50
2018-05-06T11:49:53.423Z,23.50
2018-05-06T11:52:20.879Z,23.50
2018-05-06T11:54:48.558Z,23.50
2018-05-06T11:57:16.006Z,23.50
2018-05-06T11:59:43.565Z,23.50
2018-05-06T12:02:11.200Z,23.50
2018-05-06T12:04:38.702Z,23.50
2018-05-06T12:07:06.257Z,23.50
2018-05-06T12:09:33.910Z,23.50
2018-05-06T12:12:01.477Z,23.50
2018-05-06T12:14:28.944Z,23.50
2018-05-06T12:16:56.387Z,23.60
2018-05-06T12:19:24.011Z,23.60
2018-05-06T12:21:51.673Z,23.60
2018-05-06T12:24:19.273Z,23.60
2018-05-06T12:26:46.731Z,23.60
2018-05-06T12:29:14.288Z,23.60
2018-05-06T12:31:41.736Z,23.60
2018-05-06T12:34:09.200Z,23.60
2018-05-06T12:36:36.660Z,23.60
2018-05-06T12:39:04.115Z,23.60
2018-05-06T12:41:31.569Z,23.60
2018-05-06T12:43:59.340Z,23.70
2018-05-06T12:46:26.972Z,23.70
2018-05-06T12:48:54.564Z,23.60
2018-05-06T12:51:22.007Z,23.60
2018-05-06T12:53:49.500Z,23.70
2018-05-06T12:56:17.236Z,23.70
2018-05-06T12:58:44.734Z,23.70
2018-05-06T13:01:12.476Z,23.70
2018-05-06T13:03:39.926Z,23.70
2018-05-06T13:06:07.385Z,23.70
2018-05-06T13:08:35.027Z,23.70
2018-05-06T13:11:02.472Z,23.70
2018-05-06T13:13:30.063Z,23.70
2018-05-06T13:15:59.028Z,23.70
2018-05-06T13:18:26.511Z,23.70
2018-05-06T13:20:54.271Z,23.70
2018-05-06T13:23:21.931Z,23.70
2018-05-06T13:25:49.377Z,23.70
2018-05-06T13:28:16.867Z,23.70
2018-05-06T13:30:44.734Z,23.70
2018-05-06T13:33:12.370Z,23.70
2018-05-06T13:35:39.828Z,23.70
2018-05-06T13:38:07.306Z,23.70
2018-05-06T13:40:34.763Z,23.70
2018-05-06T13:43:02.325Z,23.70
2018-05-06T13:45:29.781Z,23.70
2018-05-06T13:47:57.545Z,23.70
2018-05-06T13:50:25.015Z,23.70
2018-05-06T13:52:52.635Z,23.70
2018-05-06T13:55:20.117Z,23.70
2018-05-06T13:57:47.563Z,23.70
2018-05-06T14:00:15.081Z,23.70
2018-05-06T14:02:42.618Z,23.70
2018-05-06T14:05:09.995Z,23.70
2018-05-06T14:07:37.523Z,23.70
2018-05-06T14:10:05.284Z,23.80
2018-05-06T14:12:32.739Z,23.80
2018-05-06T14:15:00.200Z,23.80
2018-05-06T14:17:27.844Z,23.80
2018-05-06T14:19:55.327Z,23.80
2018-05-06T14:22:22.779Z,23.80
2018-05-06T14:24:50.239Z,23.80
2018-05-06T14:27:17.712Z,23.80
2018-05-06T14:29:45.263Z,23.80
2018-05-06T14:32:12.886Z,23.80
2018-05-06T14:34:40.388Z,23.80
2018-05-06T14:37:07.873Z,23.80
2018-05-06T14:39:35.437Z,23.80
2018-05-06T14:42:03.159Z,23.80
2018-05-06T14:44:30.728Z,23.80
2018-05-06T14:47:10.006Z,23.80
2018-05-06T14:49:37.462Z,23.80
2018-05-06T14:52:04.937Z,23.80
2018-05-06T14:54:32.598Z,23.80
2018-05-06T14:57:00.137Z,23.80
2018-05-06T14:59:27.648Z,23.80
2018-05-06T15:01:55.105Z,23.80
2018-05-06T15:04:22.876Z,23.80
2018-05-06T15:06:50.449Z,23.80
2018-05-06T15:09:18.162Z,23.80
2018-05-06T15:11:45.863Z,23.90
2018-05-06T15:14:19.248Z,23.80
2018-05-06T15:16:46.703Z,23.90
2018-05-06T15:19:14.284Z,23.90
2018-05-06T15:21:42.531Z,23.80
2018-05-06T15:24:09.984Z,23.90
2018-05-06T15:26:37.675Z,23.90
2018-05-06T15:29:05.135Z,23.90
2018-05-06T15:31:32.598Z,23.90
2018-05-06T15:34:00.229Z,23.90
2018-05-06T15:36:27.732Z,23.90
2018-05-06T15:38:55.176Z,23.90
2018-05-06T15:41:22.683Z,23.90
2018-05-06T15:43:50.155Z,23.90
2018-05-06T15:46:17.616Z,23.90
2018-05-06T15:48:45.116Z,23.90
2018-05-06T15:51:12.752Z,23.90
2018-05-06T15:53:40.235Z,23.90
2018-05-06T15:56:07.791Z,23.90
2018-05-06T15:58:35.251Z,23.90
2018-05-06T16:01:03.023Z,23.90
2018-05-06T16:03:42.111Z,23.90
2018-05-06T16:06:09.564Z,23.90
2018-05-06T16:08:37.061Z,23.90
2018-05-06T16:11:04.534Z,23.90
2018-05-06T16:13:32.291Z,23.90
2018-05-06T16:15:59.748Z,23.90
2018-05-06T16:18:27.571Z,23.90
2018-05-06T16:20:55.197Z,23.90
2018-05-06T16:23:22.651Z,23.90
2018-05-06T16:25:50.140Z,23.90
2018-05-06T16:28:17.605Z,23.90
2018-05-06T16:30:45.047Z,23.90
2018-05-06T16:33:12.508Z,23.90
2018-05-06T16:35:39.957Z,23.90
2018-05-06T16:38:07.417Z,23.90
2018-05-06T16:40:34.903Z,23.90
2018-05-06T16:43:02.364Z,23.90
2018-05-06T16:45:29.821Z,23.90
2018-05-06T16:47:57.284Z,23.90
2018-05-06T16:50:24.740Z,23.90
2018-05-06T16:52:52.217Z,23.90
2018-05-06T16:55:19.745Z,23.90
2018-05-06T16:57:47.365Z,23.90
2018-05-06T17:00:14.835Z,23.90
2018-05-06T17:02:42.287Z,23.90
2018-05-06T17:05:09.761Z,23.90
2018-05-06T17:07:37.296Z,23.90
2018-05-06T17:10:04.960Z,23.90
2018-05-06T17:12:32.410Z,23.90
2018-05-06T17:14:59.871Z,23.90
2018-05-06T17:17:27.318Z,23.90
2018-05-06T17:19:54.876Z,23.90
2018-05-06T17:22:22.332Z,23.90
2018-05-06T17:24:49.783Z,23.90
2018-05-06T17:27:17.236Z,23.90
2018-05-06T17:29:44.708Z,23.90
2018-05-06T17:32:12.159Z,23.90
2018-05-06T17:34:39.930Z,23.90
2018-05-06T17:37:07.565Z,23.90
2018-05-06T17:39:35.048Z,23.90
2018-05-06T17:42:02.507Z,23.90
2018-05-06T17:44:30.002Z,23.90
2018-05-06T17:46:57.455Z,23.90
2018-05-06T17:49:24.907Z,23.90
2018-05-06T17:51:52.445Z,23.90
2018-05-06T17:54:19.891Z,23.90
2018-05-06T17:56:47.463Z,23.80
2018-05-06T17:59:15.044Z,23.80
2018-05-06T18:01:42.591Z,23.80
2018-05-06T18:04:09.968Z,23.80
2018-05-06T18:06:37.435Z,23.80
2018-05-06T18:09:04.975Z,23.80
2018-05-06T18:11:32.733Z,23.80
2018-05-06T18:14:00.184Z,23.80
2018-05-06T18:16:27.647Z,23.80
2018-05-06T18:18:55.100Z,23.80
2018-05-06T18:21:22.556Z,23.80
2018-05-06T18:23:50.320Z,23.80
2018-05-06T18:26:17.787Z,23.80
2018-05-06T18:28:45.415Z,23.80
2018-05-06T18:31:12.955Z,23.80
2018-05-06T18:33:40.384Z,23.80
2018-05-06T18:36:07.844Z,23.80
2018-05-06T18:38:35.308Z,23.80
2018-05-06T18:41:02.773Z,23.80
2018-05-06T18:43:30.224Z,23.80
2018-05-06T18:45:57.679Z,23.80
2018-05-06T18:48:25.135Z,23.80
2018-05-06T18:50:52.583Z,23.80
2018-05-06T18:53:20.057Z,23.80
2018-05-06T18:55:47.516Z,23.80
2018-05-06T18:58:15.032Z,23.90
2018-05-06T19:00:42.494Z,23.90
2018-05-06T19:03:09.959Z,23.90
2018-05-06T19:05:37.615Z,23.90
2018-05-06T19:08:05.105Z,23.80
2018-05-06T19:10:32.551Z,23.90
2018-05-06T19:13:00.013Z,23.80
2018-05-06T19:15:27.479Z,23.80
2018-05-06T19:17:55.012Z,23.80
2018-05-06T19:20:22.564Z,23.80
2018-05-06T19:22:50.116Z,23.80
2018-05-06T19:25:17.559Z,23.80
2018-05-06T19:27:45.096Z,23.80
2018-05-06T19:30:12.544Z,23.80
2018-05-06T19:32:40.041Z,23.80
2018-05-06T19:35:07.499Z,23.90
2018-05-06T19:37:34.969Z,23.90
2018-05-06T19:40:02.627Z,23.90
2018-05-06T19:42:30.132Z,23.80
2018-05-06T19:44:57.526Z,23.90
2018-05-06T19:47:24.983Z,23.80
2018-05-06T19:49:52.472Z,23.80
2018-05-06T19:52:19.939Z,23.80
2018-05-06T19:54:47.495Z,23.80
2018-05-06T19:57:14.957Z,23.80
2018-05-06T19:59:42.725Z,23.80
2018-05-06T20:02:10.247Z,23.80
2018-05-06T20:04:37.815Z,23.80
2018-05-06T20:07:05.321Z,23.80
2018-05-06T20:09:32.879Z,23.80
2018-05-06T20:12:00.528Z,23.80
2018-05-06T20:14:28.005Z,23.80
2018-05-06T20:16:55.468Z,23.80
2018-05-06T20:19:22.991Z,23.80
2018-05-06T20:21:50.832Z,23.80
2018-05-06T20:24:18.614Z,23.80
2018-05-06T20:26:46.201Z,23.80
2018-05-06T20:29:13.744Z,23.80
2018-05-06T20:31:41.523Z,23.80
2018-05-06T20:34:09.000Z,23.80
2018-05-06T20:36:36.619Z,23.80
2018-05-06T20:39:04.091Z,23.80
2018-05-06T20:41:31.683Z,23.80
2018-05-06T20:43:59.338Z,23.80
2018-05-06T20:46:26.916Z,23.80
2018-05-06T20:48:54.641Z,23.90
2018-05-06T20:51:22.216Z,23.90
2018-05-06T20:53:49.865Z,23.90
2018-05-06T20:56:17.525Z,23.90
2018-05-06T20:58:45.023Z,23.90
2018-05-06T21:01:12.484Z,23.90
2018-05-06T21:03:40.176Z,23.80
2018-05-06T21:06:07.713Z,23.80
2018-05-06T21:08:35.227Z,23.80
2018-05-06T21:11:02.679Z,23.80
2018-05-06T21:13:30.171Z,23.80
2018-05-06T21:15:57.624Z,23.80
2018-05-06T21:18:25.276Z,23.80
2018-05-06T21:20:52.767Z,23.80
2018-05-06T21:23:20.302Z,23.80
2018-05-06T21:25:47.753Z,23.80
2018-05-06T21:28:15.360Z,23.80
2018-05-06T21:30:42.969Z,23.80
2018-05-06T21:33:10.400Z,23.80
2018-05-06T21:35:37.880Z,23.80
2018-05-06T21:38:05.339Z,23.80
2018-05-06T21:40:32.848Z,23.80
2018-05-06T21:43:00.484Z,23.80
2018-05-06T21:45:27.926Z,23.70
2018-05-06T21:47:55.404Z,23.70
2018-05-06T21:50:22.945Z,23.70
2018-05-06T21:52:50.632Z,23.80
2018-05-06T21:55:18.060Z,23.80
2018-05-06T21:57:45.531Z,23.70
2018-05-06T22:00:12.988Z,23.70
2018-05-06T22:02:40.448Z,23.70
2018-05-06T22:05:08.795Z,23.70
2018-05-06T22:07:36.371Z,23.80
2018-05-06T22:10:04.000Z,23.70
2018-05-06T22:12:32.686Z,23.70
2018-05-06T22:15:00.283Z,23.70
2018-05-06T22:17:27.753Z,23.70
2018-05-06T22:19:55.204Z,23.70
2018-05-06T22:22:22.838Z,23.70
2018-05-06T22:24:50.395Z,23.70
2018-05-06T22:27:17.910Z,23.70
2018-05-06T22:29:45.662Z,23.70
2018-05-06T22:32:13.306Z,23.70
2018-05-06T22:34:40.784Z,23.70
2018-05-06T22:37:08.316Z,23.70
2018-05-06T22:39:36.028Z,23.70
2018-05-06T22:42:03.494Z,23.70
2018-05-06T22:44:30.953Z,23.70
2018-05-06T22:46:58.435Z,23.70
2018-05-06T22:49:25.879Z,23.70
2018-05-06T22:51:53.385Z,23.70
2018-05-06T22:54:21.041Z,23.70
2018-05-06T22:56:48.479Z,23.70
2018-05-06T22:59:15.936Z,23.70
2018-05-06T23:01:43.418Z,23.70
2018-05-06T23:04:10.886Z,23.70
2018-05-06T23:06:38.449Z,23.70
2018-05-06T23:09:05.896Z,23.70
2018-05-06T23:11:33.415Z,23.70
2018-05-06T23:14:00.859Z,23.70
2018-05-06T23:16:28.580Z,23.70
2018-05-06T23:18:56.377Z,23.70
2018-05-06T23:21:23.831Z,23.70
2018-05-06T23:23:51.374Z,23.70
2018-05-06T23:26:18.893Z,23.70
2018-05-06T23:28:46.474Z,23.70
2018-05-06T23:31:13.947Z,23.70
2018-05-06T23:33:41.705Z,23.70
2018-05-06T23:36:09.351Z,23.70
2018-05-06T23:38:36.945Z,23.70
2018-05-06T23:41:04.696Z,23.70
2018-05-06T23:43:32.544Z,23.70
2018-05-06T23:46:00.223Z,23.60
2018-05-06T23:48:27.712Z,23.60
2018-05-06T23:50:55.168Z,23.70
2018-05-06T23:53:22.623Z,23.70
2018-05-06T23:55:50.354Z,23.70
2018-05-06T23:58:17.933Z,23.70
